WMT2908 LIPH-LROP
Flight info
| Callsign | WMT2908 |
|---|---|
| Flight time | 1h 27m |
| Altitude | 35000 |
| Route | INBUT N503 LAREN Q561 AKADO L615 ROTAR DCT NAKIT DCT PUL DCT ENUPU DCT VELIP DCT TOSVI |
| Aircraft | A321/M-L/S |
Departure
| Time | 2026-05-06 17:29 |
|---|---|
| Airport | Treviso Airport (LIPH) |
Arrival
| Time | 2026-05-06 18:56 |
|---|---|
| Airport | Bucharest Henri Coandă International Airport (LROP) |
| Time | Latitude | Longitude | Altitude | Speed | Heading |
|---|---|---|---|---|---|
| 2026-05-06 17:08 | 45.65411 | 12.20537 | 62 ft | 0 kts | 338° |
| 2026-05-06 17:23 | 45.65409 | 12.20538 | 62 ft | 2 kts | 338° |
| 2026-05-06 17:23 | 45.65388 | 12.20555 | 54 ft | 4 kts | 343° |
| 2026-05-06 17:24 | 45.65367 | 12.20561 | 55 ft | 4 kts | 12° |
| 2026-05-06 17:24 | 45.65347 | 12.20544 | 59 ft | 4 kts | 58° |
| 2026-05-06 17:24 | 45.65340 | 12.20526 | 59 ft | 0 kts | 69° |
| 2026-05-06 17:26 | 45.65341 | 12.20526 | 59 ft | 0 kts | 69° |
| 2026-05-06 17:26 | 45.65344 | 12.20539 | 60 ft | 2 kts | 69° |
| 2026-05-06 17:27 | 45.65352 | 12.20568 | 56 ft | 4 kts | 69° |
| 2026-05-06 17:27 | 45.65364 | 12.20614 | 57 ft | 6 kts | 69° |
| 2026-05-06 17:27 | 45.65378 | 12.20677 | 58 ft | 7 kts | 83° |
| 2026-05-06 17:27 | 45.65348 | 12.20736 | 58 ft | 8 kts | 149° |
| 2026-05-06 17:28 | 45.65289 | 12.20771 | 57 ft | 10 kts | 159° |
| 2026-05-06 17:28 | 45.65234 | 12.20793 | 61 ft | 7 kts | 185° |
| 2026-05-06 17:28 | 45.65205 | 12.20744 | 60 ft | 7 kts | 246° |
| 2026-05-06 17:28 | 45.65174 | 12.20627 | 56 ft | 33 kts | 249° |
| 2026-05-06 17:29 | 45.65001 | 12.19966 | 53 ft | 107 kts | 249° |
| 2026-05-06 17:29 | 45.64660 | 12.18697 | 71 ft | 163 kts | 250° |
| 2026-05-06 17:29 | 45.64245 | 12.17158 | 647 ft | 164 kts | 249° |
| 2026-05-06 17:29 | 45.63821 | 12.15645 | 1333 ft | 163 kts | 245° |
| 2026-05-06 17:30 | 45.63364 | 12.14149 | 1915 ft | 169 kts | 244° |
| 2026-05-06 17:30 | 45.62853 | 12.12538 | 2247 ft | 186 kts | 244° |
| 2026-05-06 17:30 | 45.62285 | 12.10753 | 2511 ft | 209 kts | 244° |
| 2026-05-06 17:30 | 45.61653 | 12.08756 | 2729 ft | 234 kts | 242° |
| 2026-05-06 17:31 | 45.60583 | 12.06885 | 3069 ft | 252 kts | 214° |
| 2026-05-06 17:31 | 45.58938 | 12.06033 | 3737 ft | 258 kts | 183° |
| 2026-05-06 17:31 | 45.57178 | 12.06612 | 4475 ft | 267 kts | 150° |
| 2026-05-06 17:31 | 45.55893 | 12.08530 | 5196 ft | 275 kts | 122° |
| 2026-05-06 17:32 | 45.54989 | 12.10957 | 5950 ft | 279 kts | 119° |
| 2026-05-06 17:32 | 45.54122 | 12.13466 | 6673 ft | 284 kts | 118° |
| 2026-05-06 17:32 | 45.53260 | 12.16023 | 7398 ft | 288 kts | 118° |
| 2026-05-06 17:32 | 45.52392 | 12.18593 | 8144 ft | 291 kts | 119° |
| 2026-05-06 17:33 | 45.51492 | 12.21209 | 8878 ft | 295 kts | 120° |
| 2026-05-06 17:33 | 45.50571 | 12.23841 | 9620 ft | 298 kts | 120° |
| 2026-05-06 17:33 | 45.49626 | 12.26514 | 10137 ft | 310 kts | 121° |
| 2026-05-06 17:33 | 45.48611 | 12.29350 | 10303 ft | 333 kts | 121° |
| 2026-05-06 17:34 | 45.47518 | 12.32395 | 10449 ft | 356 kts | 120° |
| 2026-05-06 17:34 | 45.46373 | 12.35599 | 10834 ft | 367 kts | 120° |
| 2026-05-06 17:34 | 45.45216 | 12.38865 | 11449 ft | 372 kts | 120° |
| 2026-05-06 17:34 | 45.44048 | 12.42170 | 12114 ft | 376 kts | 120° |
| 2026-05-06 17:35 | 45.42863 | 12.45513 | 12775 ft | 379 kts | 120° |
| 2026-05-06 17:35 | 45.41666 | 12.48869 | 13444 ft | 383 kts | 121° |
| 2026-05-06 17:35 | 45.40448 | 12.52268 | 14056 ft | 387 kts | 121° |
| 2026-05-06 17:36 | 45.37981 | 12.59147 | 15172 ft | 395 kts | 121° |
| 2026-05-06 17:36 | 45.36721 | 12.62663 | 15750 ft | 400 kts | 121° |
| 2026-05-06 17:36 | 45.35455 | 12.66196 | 16326 ft | 404 kts | 121° |
| 2026-05-06 17:36 | 45.34174 | 12.69767 | 16898 ft | 408 kts | 121° |
| 2026-05-06 17:37 | 45.32891 | 12.73340 | 17469 ft | 411 kts | 121° |
| 2026-05-06 17:37 | 45.31568 | 12.77010 | 18023 ft | 416 kts | 121° |
| 2026-05-06 17:37 | 45.30238 | 12.80683 | 18531 ft | 419 kts | 121° |
| 2026-05-06 17:37 | 45.28899 | 12.84379 | 19037 ft | 422 kts | 121° |
| 2026-05-06 17:38 | 45.27549 | 12.88099 | 19553 ft | 426 kts | 121° |
| 2026-05-06 17:38 | 45.26188 | 12.91848 | 20055 ft | 429 kts | 121° |
| 2026-05-06 17:38 | 45.24819 | 12.95619 | 20562 ft | 431 kts | 121° |
| 2026-05-06 17:38 | 45.23442 | 12.99412 | 21036 ft | 434 kts | 121° |
| 2026-05-06 17:39 | 45.22050 | 13.03239 | 21511 ft | 437 kts | 121° |
| 2026-05-06 17:39 | 45.20653 | 13.07071 | 21969 ft | 440 kts | 121° |
| 2026-05-06 17:39 | 45.19235 | 13.10946 | 22437 ft | 443 kts | 121° |
| 2026-05-06 17:39 | 45.17811 | 13.14834 | 22866 ft | 446 kts | 121° |
| 2026-05-06 17:40 | 45.16374 | 13.18754 | 23312 ft | 449 kts | 121° |
| 2026-05-06 17:40 | 45.14931 | 13.22688 | 23693 ft | 452 kts | 121° |
| 2026-05-06 17:40 | 45.13481 | 13.26641 | 24061 ft | 454 kts | 121° |
| 2026-05-06 17:40 | 45.12017 | 13.30630 | 24432 ft | 457 kts | 121° |
| 2026-05-06 17:41 | 45.10549 | 13.34620 | 24802 ft | 459 kts | 122° |
| 2026-05-06 17:41 | 45.09067 | 13.38640 | 25153 ft | 462 kts | 122° |
| 2026-05-06 17:41 | 45.07573 | 13.42683 | 25503 ft | 464 kts | 122° |
| 2026-05-06 17:41 | 45.06072 | 13.46738 | 25852 ft | 467 kts | 122° |
| 2026-05-06 17:42 | 45.04560 | 13.50820 | 26196 ft | 470 kts | 122° |
| 2026-05-06 17:42 | 45.03047 | 13.54898 | 26533 ft | 472 kts | 122° |
| 2026-05-06 17:42 | 45.01493 | 13.59078 | 26873 ft | 475 kts | 122° |
| 2026-05-06 17:42 | 44.99974 | 13.63152 | 27185 ft | 477 kts | 122° |
| 2026-05-06 17:43 | 44.98421 | 13.67309 | 27509 ft | 479 kts | 122° |
| 2026-05-06 17:43 | 44.96841 | 13.71533 | 27836 ft | 482 kts | 122° |
| 2026-05-06 17:43 | 44.95291 | 13.75676 | 28166 ft | 484 kts | 122° |
| 2026-05-06 17:43 | 44.93713 | 13.79888 | 28494 ft | 486 kts | 122° |
| 2026-05-06 17:44 | 44.92126 | 13.84117 | 28823 ft | 489 kts | 122° |
| 2026-05-06 17:44 | 44.90654 | 13.88457 | 29208 ft | 493 kts | 115° |
| 2026-05-06 17:44 | 44.89622 | 13.93087 | 29671 ft | 497 kts | 106° |
| 2026-05-06 17:44 | 44.89078 | 13.97913 | 30102 ft | 500 kts | 97° |
| 2026-05-06 17:45 | 44.88924 | 14.02816 | 30479 ft | 500 kts | 95° |
| 2026-05-06 17:45 | 44.88797 | 14.07715 | 30859 ft | 499 kts | 95° |
| 2026-05-06 17:45 | 44.88669 | 14.12601 | 31242 ft | 498 kts | 95° |
| 2026-05-06 17:45 | 44.88535 | 14.17535 | 31636 ft | 497 kts | 95° |
| 2026-05-06 17:46 | 44.88396 | 14.22389 | 32029 ft | 495 kts | 95° |
| 2026-05-06 17:46 | 44.88253 | 14.27171 | 32424 ft | 494 kts | 95° |
| 2026-05-06 17:46 | 44.88105 | 14.32002 | 32815 ft | 492 kts | 95° |
| 2026-05-06 17:46 | 44.87955 | 14.36817 | 33210 ft | 491 kts | 95° |
| 2026-05-06 17:47 | 44.87806 | 14.41620 | 33602 ft | 489 kts | 95° |
| 2026-05-06 17:47 | 44.87655 | 14.46401 | 33982 ft | 488 kts | 95° |
| 2026-05-06 17:47 | 44.87504 | 14.51182 | 34302 ft | 486 kts | 95° |
| 2026-05-06 17:47 | 44.87350 | 14.55939 | 34617 ft | 485 kts | 95° |
| 2026-05-06 17:48 | 44.87195 | 14.60681 | 34918 ft | 485 kts | 95° |
| 2026-05-06 17:48 | 44.87040 | 14.65418 | 35206 ft | 484 kts | 95° |
| 2026-05-06 17:48 | 44.86883 | 14.70165 | 35500 ft | 483 kts | 95° |
| 2026-05-06 17:48 | 44.86722 | 14.74890 | 35786 ft | 483 kts | 95° |
| 2026-05-06 17:49 | 44.86558 | 14.79623 | 36073 ft | 483 kts | 95° |
| 2026-05-06 17:49 | 44.86394 | 14.84332 | 36342 ft | 482 kts | 95° |
| 2026-05-06 17:49 | 44.86228 | 14.89059 | 36602 ft | 482 kts | 95° |
| 2026-05-06 17:49 | 44.86116 | 14.92237 | 36781 ft | 482 kts | 95° |
| 2026-05-06 17:50 | 44.85891 | 14.98503 | 36955 ft | 483 kts | 95° |
| 2026-05-06 17:50 | 44.85720 | 15.03230 | 36962 ft | 483 kts | 95° |
| 2026-05-06 17:50 | 44.85374 | 15.12682 | 36963 ft | 483 kts | 95° |
| 2026-05-06 17:51 | 44.85022 | 15.22144 | 36964 ft | 484 kts | 95° |
| 2026-05-06 17:51 | 44.84660 | 15.31623 | 36968 ft | 484 kts | 95° |
| 2026-05-06 17:52 | 44.84281 | 15.41102 | 36965 ft | 485 kts | 95° |
| 2026-05-06 17:52 | 44.83898 | 15.50591 | 36963 ft | 485 kts | 95° |
| 2026-05-06 17:53 | 44.83516 | 15.60088 | 36964 ft | 486 kts | 95° |
| 2026-05-06 17:53 | 44.83120 | 15.69536 | 36971 ft | 486 kts | 95° |
| 2026-05-06 17:54 | 44.82715 | 15.79064 | 36967 ft | 487 kts | 95° |
| 2026-05-06 17:54 | 44.82299 | 15.88595 | 36968 ft | 487 kts | 96° |
| 2026-05-06 17:55 | 44.81880 | 15.98112 | 36978 ft | 487 kts | 96° |
| 2026-05-06 17:55 | 44.81443 | 16.07624 | 36970 ft | 487 kts | 96° |
| 2026-05-06 17:56 | 44.81002 | 16.17159 | 36964 ft | 487 kts | 96° |
| 2026-05-06 17:56 | 44.80567 | 16.26691 | 36958 ft | 488 kts | 96° |
| 2026-05-06 17:57 | 44.80115 | 16.36172 | 36970 ft | 488 kts | 96° |
| 2026-05-06 17:57 | 44.79648 | 16.45688 | 36963 ft | 488 kts | 96° |
| 2026-05-06 17:58 | 44.79180 | 16.55219 | 36951 ft | 488 kts | 96° |
| 2026-05-06 17:58 | 44.78782 | 16.63198 | 36950 ft | 488 kts | 96° |
| 2026-05-06 17:59 | 44.78293 | 16.72733 | 36953 ft | 488 kts | 96° |
| 2026-05-06 17:59 | 44.77793 | 16.82265 | 36954 ft | 488 kts | 96° |
| 2026-05-06 18:00 | 44.77295 | 16.91739 | 36949 ft | 489 kts | 96° |
| 2026-05-06 18:00 | 44.76789 | 17.01341 | 36942 ft | 489 kts | 96° |
| 2026-05-06 18:01 | 44.76270 | 17.10881 | 36935 ft | 489 kts | 96° |
| 2026-05-06 18:01 | 44.75743 | 17.20434 | 36934 ft | 490 kts | 96° |
| 2026-05-06 18:02 | 44.75218 | 17.29927 | 36941 ft | 490 kts | 96° |
| 2026-05-06 18:02 | 44.74673 | 17.39536 | 36940 ft | 490 kts | 96° |
| 2026-05-06 18:03 | 44.74116 | 17.49083 | 36946 ft | 489 kts | 97° |
| 2026-05-06 18:03 | 44.73563 | 17.58565 | 36944 ft | 489 kts | 97° |
| 2026-05-06 18:04 | 44.72999 | 17.68091 | 36949 ft | 489 kts | 96° |
| 2026-05-06 18:04 | 44.72425 | 17.77625 | 36942 ft | 489 kts | 97° |
| 2026-05-06 18:05 | 44.71845 | 17.87152 | 36940 ft | 490 kts | 97° |
| 2026-05-06 18:05 | 44.71258 | 17.96698 | 36945 ft | 490 kts | 97° |
| 2026-05-06 18:06 | 44.70660 | 18.06232 | 36950 ft | 490 kts | 97° |
| 2026-05-06 18:06 | 44.70053 | 18.15763 | 36954 ft | 489 kts | 97° |
| 2026-05-06 18:07 | 44.69433 | 18.25293 | 36953 ft | 489 kts | 97° |
| 2026-05-06 18:07 | 44.68817 | 18.34804 | 36949 ft | 489 kts | 97° |
| 2026-05-06 18:08 | 44.68191 | 18.44320 | 36946 ft | 489 kts | 97° |
| 2026-05-06 18:08 | 44.67555 | 18.53830 | 36948 ft | 489 kts | 97° |
| 2026-05-06 18:09 | 44.66915 | 18.63301 | 36946 ft | 488 kts | 97° |
| 2026-05-06 18:09 | 44.66259 | 18.72804 | 36941 ft | 487 kts | 97° |
| 2026-05-06 18:10 | 44.65596 | 18.82275 | 36942 ft | 487 kts | 97° |
| 2026-05-06 18:10 | 44.64934 | 18.91729 | 36945 ft | 486 kts | 97° |
| 2026-05-06 18:11 | 44.64261 | 19.01176 | 36948 ft | 485 kts | 97° |
| 2026-05-06 18:11 | 44.63586 | 19.10587 | 36950 ft | 485 kts | 98° |
| 2026-05-06 18:12 | 44.62897 | 19.19997 | 36948 ft | 484 kts | 98° |
| 2026-05-06 18:12 | 44.62204 | 19.29378 | 36946 ft | 483 kts | 98° |
| 2026-05-06 18:13 | 44.61907 | 19.38783 | 36944 ft | 484 kts | 86° |
| 2026-05-06 18:13 | 44.62659 | 19.48148 | 36946 ft | 483 kts | 84° |
| 2026-05-06 18:14 | 44.63408 | 19.57519 | 36945 ft | 482 kts | 85° |
| 2026-05-06 18:14 | 44.64141 | 19.66873 | 36945 ft | 481 kts | 85° |
| 2026-05-06 18:15 | 44.64863 | 19.76203 | 36943 ft | 480 kts | 85° |
| 2026-05-06 18:15 | 44.65581 | 19.85530 | 36939 ft | 480 kts | 85° |
| 2026-05-06 18:16 | 44.66290 | 19.94849 | 36936 ft | 480 kts | 85° |
| 2026-05-06 18:16 | 44.66989 | 20.04149 | 36940 ft | 479 kts | 85° |
| 2026-05-06 18:17 | 44.67678 | 20.13453 | 36939 ft | 479 kts | 85° |
| 2026-05-06 18:17 | 44.68360 | 20.22777 | 36938 ft | 479 kts | 85° |
| 2026-05-06 18:18 | 44.69040 | 20.32086 | 36939 ft | 479 kts | 85° |
| 2026-05-06 18:18 | 44.69711 | 20.41385 | 36942 ft | 478 kts | 85° |
| 2026-05-06 18:19 | 44.70368 | 20.50667 | 36941 ft | 478 kts | 85° |
| 2026-05-06 18:19 | 44.71024 | 20.59967 | 36948 ft | 477 kts | 84° |
| 2026-05-06 18:20 | 44.71676 | 20.69246 | 36947 ft | 477 kts | 84° |
| 2026-05-06 18:20 | 44.72310 | 20.78515 | 36948 ft | 476 kts | 85° |
| 2026-05-06 18:21 | 44.72934 | 20.87763 | 36952 ft | 476 kts | 85° |
| 2026-05-06 18:21 | 44.73555 | 20.97044 | 36946 ft | 475 kts | 84° |
| 2026-05-06 18:22 | 44.74176 | 21.06297 | 36945 ft | 475 kts | 84° |
| 2026-05-06 18:22 | 44.74787 | 21.15561 | 36959 ft | 475 kts | 85° |
| 2026-05-06 18:23 | 44.75383 | 21.24808 | 36953 ft | 475 kts | 84° |
| 2026-05-06 18:23 | 44.75966 | 21.34047 | 36956 ft | 475 kts | 85° |
| 2026-05-06 18:24 | 44.76542 | 21.43312 | 36960 ft | 474 kts | 84° |
| 2026-05-06 18:24 | 44.77107 | 21.52557 | 36962 ft | 474 kts | 85° |
| 2026-05-06 18:25 | 44.77410 | 21.61830 | 36968 ft | 475 kts | 89° |
| 2026-05-06 18:25 | 44.77429 | 21.71115 | 36977 ft | 474 kts | 90° |
| 2026-05-06 18:26 | 44.77421 | 21.80344 | 36977 ft | 474 kts | 89° |
| 2026-05-06 18:26 | 44.77485 | 21.89633 | 36986 ft | 474 kts | 89° |
| 2026-05-06 18:27 | 44.77574 | 21.98911 | 36993 ft | 474 kts | 89° |
| 2026-05-06 18:27 | 44.77649 | 22.08201 | 36998 ft | 474 kts | 89° |
| 2026-05-06 18:28 | 44.77689 | 22.17277 | 37001 ft | 475 kts | 89° |
| 2026-05-06 18:28 | 44.77729 | 22.26716 | 37000 ft | 475 kts | 89° |
| 2026-05-06 18:29 | 44.77775 | 22.36007 | 37002 ft | 475 kts | 89° |
| 2026-05-06 18:29 | 44.77809 | 22.45298 | 36994 ft | 475 kts | 89° |
| 2026-05-06 18:30 | 44.77830 | 22.54589 | 37001 ft | 475 kts | 89° |
| 2026-05-06 18:30 | 44.77843 | 22.63905 | 36999 ft | 475 kts | 89° |
| 2026-05-06 18:31 | 44.77852 | 22.73204 | 36992 ft | 475 kts | 89° |
| 2026-05-06 18:31 | 44.77849 | 22.82500 | 36996 ft | 475 kts | 89° |
| 2026-05-06 18:32 | 44.77838 | 22.91853 | 37002 ft | 475 kts | 89° |
| 2026-05-06 18:32 | 44.77825 | 23.01102 | 37000 ft | 475 kts | 88° |
| 2026-05-06 18:33 | 44.77802 | 23.10444 | 36999 ft | 475 kts | 88° |
| 2026-05-06 18:33 | 44.77777 | 23.19691 | 36997 ft | 475 kts | 88° |
| 2026-05-06 18:34 | 44.77762 | 23.24347 | 36886 ft | 476 kts | 88° |
| 2026-05-06 18:34 | 44.77742 | 23.28993 | 36619 ft | 475 kts | 88° |
| 2026-05-06 18:34 | 44.77719 | 23.33621 | 36357 ft | 474 kts | 88° |
| 2026-05-06 18:34 | 44.77694 | 23.38252 | 36095 ft | 474 kts | 88° |
| 2026-05-06 18:35 | 44.77670 | 23.42842 | 35841 ft | 474 kts | 88° |
| 2026-05-06 18:35 | 44.77643 | 23.47497 | 35252 ft | 475 kts | 88° |
| 2026-05-06 18:35 | 44.77615 | 23.52148 | 34543 ft | 478 kts | 88° |
| 2026-05-06 18:35 | 44.77585 | 23.56822 | 33651 ft | 484 kts | 88° |
| 2026-05-06 18:36 | 44.77555 | 23.61578 | 32760 ft | 486 kts | 88° |
| 2026-05-06 18:36 | 44.77534 | 23.64696 | 32183 ft | 481 kts | 88° |
| 2026-05-06 18:36 | 44.77500 | 23.69376 | 31249 ft | 486 kts | 88° |
| 2026-05-06 18:36 | 44.77449 | 23.75722 | 29929 ft | 493 kts | 89° |
| 2026-05-06 18:37 | 44.77404 | 23.80553 | 28820 ft | 489 kts | 89° |
| 2026-05-06 18:37 | 44.77370 | 23.83751 | 28201 ft | 487 kts | 89° |
| 2026-05-06 18:37 | 44.77320 | 23.88484 | 27636 ft | 481 kts | 89° |
| 2026-05-06 18:37 | 44.77272 | 23.93180 | 26954 ft | 478 kts | 89° |
| 2026-05-06 18:38 | 44.77226 | 23.97841 | 26301 ft | 474 kts | 89° |
| 2026-05-06 18:38 | 44.77180 | 24.02459 | 25643 ft | 471 kts | 89° |
| 2026-05-06 18:38 | 44.77132 | 24.07031 | 24992 ft | 467 kts | 90° |
| 2026-05-06 18:38 | 44.77080 | 24.11592 | 24348 ft | 463 kts | 90° |
| 2026-05-06 18:39 | 44.77029 | 24.16114 | 23713 ft | 460 kts | 90° |
| 2026-05-06 18:39 | 44.76976 | 24.20595 | 23015 ft | 456 kts | 90° |
| 2026-05-06 18:39 | 44.76920 | 24.25006 | 22394 ft | 450 kts | 90° |
| 2026-05-06 18:40 | 44.76802 | 24.33687 | 21197 ft | 438 kts | 90° |
| 2026-05-06 18:40 | 44.76743 | 24.37939 | 20630 ft | 432 kts | 90° |
| 2026-05-06 18:40 | 44.76682 | 24.42139 | 20081 ft | 426 kts | 91° |
| 2026-05-06 18:40 | 44.76623 | 24.46273 | 19544 ft | 421 kts | 91° |
| 2026-05-06 18:41 | 44.76565 | 24.50355 | 19022 ft | 416 kts | 91° |
| 2026-05-06 18:41 | 44.76506 | 24.54418 | 18511 ft | 413 kts | 91° |
| 2026-05-06 18:41 | 44.76442 | 24.58450 | 17947 ft | 410 kts | 91° |
| 2026-05-06 18:41 | 44.76376 | 24.62442 | 17428 ft | 406 kts | 91° |
| 2026-05-06 18:42 | 44.76309 | 24.66391 | 16903 ft | 402 kts | 91° |
| 2026-05-06 18:42 | 44.76243 | 24.70300 | 16379 ft | 397 kts | 91° |
| 2026-05-06 18:42 | 44.76055 | 24.74140 | 15973 ft | 389 kts | 101° |
| 2026-05-06 18:42 | 44.75415 | 24.77777 | 15483 ft | 385 kts | 105° |
| 2026-05-06 18:43 | 44.74719 | 24.81420 | 14953 ft | 381 kts | 105° |
| 2026-05-06 18:43 | 44.74024 | 24.85003 | 14422 ft | 378 kts | 105° |
| 2026-05-06 18:43 | 44.73336 | 24.88515 | 13906 ft | 375 kts | 106° |
| 2026-05-06 18:43 | 44.72636 | 24.92072 | 13325 ft | 372 kts | 106° |
| 2026-05-06 18:44 | 44.71958 | 24.95521 | 12759 ft | 369 kts | 106° |
| 2026-05-06 18:44 | 44.71277 | 24.98990 | 12175 ft | 366 kts | 105° |
| 2026-05-06 18:44 | 44.70605 | 25.02419 | 11599 ft | 363 kts | 105° |
| 2026-05-06 18:44 | 44.69936 | 25.05831 | 11129 ft | 360 kts | 105° |
| 2026-05-06 18:45 | 44.69281 | 25.09168 | 10976 ft | 347 kts | 105° |
| 2026-05-06 18:45 | 44.68656 | 25.12347 | 10992 ft | 328 kts | 105° |
| 2026-05-06 18:45 | 44.68063 | 25.15351 | 10990 ft | 311 kts | 106° |
| 2026-05-06 18:45 | 44.67497 | 25.18216 | 10827 ft | 302 kts | 106° |
| 2026-05-06 18:46 | 44.66948 | 25.21002 | 10544 ft | 298 kts | 105° |
| 2026-05-06 18:46 | 44.66397 | 25.23796 | 10208 ft | 296 kts | 105° |
| 2026-05-06 18:46 | 44.65848 | 25.26562 | 9868 ft | 295 kts | 106° |
| 2026-05-06 18:46 | 44.65298 | 25.29318 | 9495 ft | 293 kts | 106° |
| 2026-05-06 18:47 | 44.64757 | 25.32016 | 9134 ft | 292 kts | 105° |
| 2026-05-06 18:47 | 44.64208 | 25.34764 | 8773 ft | 290 kts | 105° |
| 2026-05-06 18:47 | 44.63665 | 25.37485 | 8423 ft | 288 kts | 105° |
| 2026-05-06 18:47 | 44.63128 | 25.40182 | 8072 ft | 287 kts | 105° |
| 2026-05-06 18:48 | 44.62594 | 25.42872 | 7721 ft | 285 kts | 105° |
| 2026-05-06 18:48 | 44.62062 | 25.45544 | 7370 ft | 284 kts | 105° |
| 2026-05-06 18:48 | 44.61531 | 25.48206 | 7030 ft | 283 kts | 105° |
| 2026-05-06 18:48 | 44.61002 | 25.50856 | 6759 ft | 281 kts | 105° |
| 2026-05-06 18:49 | 44.60473 | 25.53496 | 6495 ft | 281 kts | 105° |
| 2026-05-06 18:49 | 44.59940 | 25.56135 | 6220 ft | 280 kts | 105° |
| 2026-05-06 18:49 | 44.59412 | 25.58751 | 5941 ft | 278 kts | 105° |
| 2026-05-06 18:49 | 44.58885 | 25.61353 | 5667 ft | 276 kts | 105° |
| 2026-05-06 18:50 | 44.58360 | 25.63940 | 5392 ft | 274 kts | 105° |
| 2026-05-06 18:50 | 44.57842 | 25.66486 | 5122 ft | 272 kts | 105° |
| 2026-05-06 18:50 | 44.57326 | 25.69024 | 4864 ft | 268 kts | 105° |
| 2026-05-06 18:50 | 44.56823 | 25.71512 | 4604 ft | 263 kts | 105° |
| 2026-05-06 18:51 | 44.56326 | 25.73959 | 4393 ft | 258 kts | 106° |
| 2026-05-06 18:51 | 44.55844 | 25.76325 | 4182 ft | 245 kts | 106° |
| 2026-05-06 18:51 | 44.55387 | 25.78563 | 4019 ft | 233 kts | 106° |
| 2026-05-06 18:51 | 44.54951 | 25.80698 | 3808 ft | 224 kts | 107° |
| 2026-05-06 18:52 | 44.54610 | 25.82786 | 3533 ft | 216 kts | 96° |
| 2026-05-06 18:52 | 44.54698 | 25.84843 | 3204 ft | 207 kts | 85° |
| 2026-05-06 18:52 | 44.54852 | 25.86789 | 2935 ft | 195 kts | 85° |
| 2026-05-06 18:52 | 44.54998 | 25.88652 | 2716 ft | 189 kts | 85° |
| 2026-05-06 18:53 | 44.55138 | 25.90452 | 2490 ft | 181 kts | 86° |
| 2026-05-06 18:53 | 44.55269 | 25.92125 | 2291 ft | 166 kts | 86° |
| 2026-05-06 18:53 | 44.55388 | 25.93656 | 2100 ft | 153 kts | 87° |
| 2026-05-06 18:53 | 44.55501 | 25.95109 | 1919 ft | 147 kts | 88° |
| 2026-05-06 18:54 | 44.55610 | 25.96524 | 1745 ft | 145 kts | 88° |
| 2026-05-06 18:54 | 44.55717 | 25.97921 | 1560 ft | 144 kts | 88° |
| 2026-05-06 18:54 | 44.55824 | 25.99298 | 1400 ft | 143 kts | 87° |
| 2026-05-06 18:54 | 44.55931 | 26.00702 | 1224 ft | 143 kts | 87° |
| 2026-05-06 18:55 | 44.56035 | 26.02089 | 1048 ft | 143 kts | 85° |
| 2026-05-06 18:55 | 44.56142 | 26.03479 | 923 ft | 145 kts | 85° |
| 2026-05-06 18:55 | 44.56250 | 26.04875 | 723 ft | 143 kts | 84° |
| 2026-05-06 18:55 | 44.56355 | 26.06248 | 543 ft | 142 kts | 84° |
| 2026-05-06 18:56 | 44.56461 | 26.07626 | 379 ft | 141 kts | 85° |
| 2026-05-06 18:56 | 44.56553 | 26.08912 | 322 ft | 116 kts | 83° |
| 2026-05-06 18:56 | 44.56624 | 26.09800 | 322 ft | 67 kts | 84° |
| 2026-05-06 18:56 | 44.56660 | 26.10307 | 323 ft | 49 kts | 84° |
| 2026-05-06 18:57 | 44.56693 | 26.10686 | 322 ft | 21 kts | 64° |
| 2026-05-06 18:57 | 44.56801 | 26.10756 | 322 ft | 17 kts | 355° |
| 2026-05-06 18:57 | 44.56924 | 26.10738 | 322 ft | 19 kts | 353° |
| 2026-05-06 18:57 | 44.57009 | 26.10691 | 322 ft | 12 kts | 313° |
| 2026-05-06 18:58 | 44.57056 | 26.10586 | 323 ft | 13 kts | 297° |
| 2026-05-06 18:58 | 44.57063 | 26.10452 | 320 ft | 15 kts | 263° |
| 2026-05-06 18:58 | 44.57052 | 26.10310 | 322 ft | 16 kts | 264° |
| 2026-05-06 18:58 | 44.57042 | 26.10179 | 323 ft | 14 kts | 264° |
| 2026-05-06 18:59 | 44.57031 | 26.10036 | 323 ft | 15 kts | 264° |
| 2026-05-06 18:59 | 44.57019 | 26.09881 | 323 ft | 17 kts | 264° |
| 2026-05-06 18:59 | 44.57005 | 26.09708 | 321 ft | 18 kts | 263° |
| 2026-05-06 18:59 | 44.56991 | 26.09525 | 321 ft | 20 kts | 264° |
| 2026-05-06 19:00 | 44.56978 | 26.09353 | 323 ft | 18 kts | 264° |
| 2026-05-06 19:00 | 44.56967 | 26.09206 | 322 ft | 14 kts | 264° |
| 2026-05-06 19:00 | 44.56956 | 26.09064 | 323 ft | 15 kts | 264° |
| 2026-05-06 19:00 | 44.56948 | 26.08960 | 321 ft | 16 kts | 264° |
| 2026-05-06 19:01 | 44.56931 | 26.08740 | 323 ft | 13 kts | 264° |
| 2026-05-06 19:01 | 44.56921 | 26.08607 | 322 ft | 13 kts | 263° |
| 2026-05-06 19:01 | 44.56895 | 26.08483 | 323 ft | 13 kts | 262° |
| 2026-05-06 19:01 | 44.56933 | 26.08387 | 323 ft | 12 kts | 317° |
| 2026-05-06 19:02 | 44.56947 | 26.08274 | 321 ft | 11 kts | 264° |
| 2026-05-06 19:02 | 44.56940 | 26.08173 | 323 ft | 11 kts | 264° |
| 2026-05-06 19:02 | 44.56931 | 26.08064 | 323 ft | 12 kts | 264° |
| 2026-05-06 19:02 | 44.56927 | 26.07983 | 323 ft | 6 kts | 282° |
| 2026-05-06 19:03 | 44.56955 | 26.07972 | 323 ft | 5 kts | 349° |
| 2026-05-06 19:03 | 44.56996 | 26.07966 | 323 ft | 6 kts | 354° |
| 2026-05-06 19:03 | 44.57009 | 26.07964 | 323 ft | 1 kts | 354° |
| 2026-05-06 19:03 | 44.57010 | 26.07964 | 323 ft | 0 kts | 354° |